Time;durP1;ratioP1;P1;durP2;ratioP2;P2;SDS_P1;SDS_P2;PMS_P1;PMS_P2;Temp;Humidity;BMP_temperature;BMP_pressure;BME280_temperature;BME280_humidity;BME280_pressure;Samples;Min_cycle;Max_cycle;Signal;HPM_P1;HPM_P2
2022/05/12 00:01:09;;;;;;;2.10;0.20;;;19.50;56.00;;;;;;5092469;28;20036;-72
2022/05/12 00:03:35;;;;;;;3.20;0.30;;;19.50;56.10;;;;;;5093014;28;20036;-72
2022/05/12 00:06:01;;;;;;;2.00;0.30;;;19.40;56.00;;;;;;5093048;28;20042;-72
2022/05/12 00:08:27;;;;;;;1.85;0.20;;;19.40;56.00;;;;;;5093797;28;20040;-71
2022/05/12 00:10:54;;;;;;;1.65;0.40;;;19.40;56.00;;;;;;5093238;28;20043;-71
2022/05/12 00:13:20;;;;;;;1.80;0.30;;;19.40;56.00;;;;;;5092589;28;20044;-72
2022/05/12 00:15:48;;;;;;;1.10;0.40;;;19.40;56.10;;;;;;5093927;28;20036;-71
2022/05/12 00:18:14;;;;;;;0.95;0.30;;;19.40;56.00;;;;;;5092732;28;20471;-72
2022/05/12 00:20:41;;;;;;;1.65;0.43;;;19.40;56.00;;;;;;5092378;28;20035;-73
2022/05/12 00:25:50;;;;;;;2.10;0.45;;;19.30;56.00;;;;;;5089609;27;20438;-70
2022/05/12 00:28:20;;;;;;;1.80;0.43;;;19.40;56.00;;;;;;5088392;28;20067;-72
2022/05/12 00:30:48;;;;;;;0.98;0.20;;;19.30;55.90;;;;;;5088197;28;20119;-71
2022/05/12 00:33:16;;;;;;;0.73;0.20;;;19.30;55.90;;;;;;5088376;28;20045;-72
2022/05/12 00:35:43;;;;;;;1.65;0.15;;;19.30;56.70;;;;;;5088318;28;20044;-71
2022/05/12 00:38:10;;;;;;;1.25;0.30;;;19.30;55.90;;;;;;5088095;28;20044;-72
2022/05/12 00:40:37;;;;;;;1.25;0.38;;;19.30;55.90;;;;;;5104955;28;20476;-72
2022/05/12 00:43:07;;;;;;;2.08;0.30;;;19.20;55.90;;;;;;5088002;28;20036;-69
2022/05/12 00:45:35;;;;;;;0.93;0.20;;;19.30;56.00;;;;;;5087761;28;20048;-71
2022/05/12 00:48:03;;;;;;;1.33;0.30;;;19.30;55.90;;;;;;5088100;28;20029;-73
2022/05/12 00:50:35;;;;;;;1.33;0.20;;;19.20;55.80;;;;;;5089293;28;20100;-71
2022/05/12 00:53:03;;;;;;;1.58;0.10;;;19.20;55.90;;;;;;5087781;28;20036;-71
2022/05/12 00:55:33;;;;;;;2.05;0.20;;;19.20;55.90;;;;;;5088939;28;20101;-73
2022/05/12 00:58:02;;;;;;;0.88;0.10;;;19.20;55.80;;;;;;5087691;28;20577;-73
2022/05/12 01:00:27;;;;;;;1.17;0.10;;;19.20;55.80;;;;;;5087567;28;20536;-72
2022/05/12 01:02:56;;;;;;;1.27;0.38;;;19.20;55.80;;;;;;5088785;28;20119;-71
2022/05/12 01:05:24;;;;;;;1.13;0.30;;;19.20;55.80;;;;;;5087323;28;20047;-71
2022/05/12 01:07:51;;;;;;;1.67;0.17;;;19.20;55.80;;;;;;5087807;28;20085;-72
2022/05/12 01:10:18;;;;;;;1.35;0.43;;;19.20;55.80;;;;;;5088614;28;20024;-72
2022/05/12 01:12:48;;;;;;;1.70;0.20;;;19.20;55.80;;;;;;5087635;28;20036;-72
2022/05/12 01:15:17;;;;;;;1.30;0.30;;;19.10;55.80;;;;;;5086398;28;20036;-71
2022/05/12 01:17:43;;;;;;;1.70;0.10;;;19.10;55.70;;;;;;5087132;28;20064;-71
2022/05/12 01:20:11;;;;;;;2.65;0.52;;;19.10;55.70;;;;;;5087533;28;20040;-69
2022/05/12 01:22:59;;;;;;;1.60;0.20;;;19.10;55.70;;;;;;5087387;28;20032;-72
2022/05/12 01:25:29;;;;;;;1.92;0.20;;;19.10;55.80;;;;;;5086764;28;20060;-69
2022/05/12 01:27:54;;;;;;;0.80;0.10;;;19.10;55.70;;;;;;5087340;28;20379;-69
2022/05/12 01:30:23;;;;;;;0.85;0.20;;;19.10;55.70;;;;;;5087258;28;20123;-71
2022/05/12 01:32:50;;;;;;;1.20;0.10;;;19.00;55.70;;;;;;5087014;28;20097;-71
2022/05/12 01:35:19;;;;;;;1.65;0.20;;;19.00;55.60;;;;;;5083932;28;20051;-69
2022/05/12 01:37:46;;;;;;;1.00;0.10;;;19.00;55.60;;;;;;5073739;28;20037;-73
2022/05/12 01:40:17;;;;;;;1.15;0.10;;;19.00;55.60;;;;;;5073599;28;20040;-73
2022/05/12 01:42:43;;;;;;;1.20;0.20;;;19.00;55.60;;;;;;5073200;28;20107;-71
2022/05/12 01:45:10;;;;;;;0.95;0.10;;;19.00;55.60;;;;;;5073338;28;20116;-72
2022/05/12 01:47:36;;;;;;;1.30;0.30;;;19.00;55.70;;;;;;5073436;28;20123;-72
2022/05/12 01:50:03;;;;;;;2.10;0.25;;;19.00;55.60;;;;;;5073496;28;20040;-73
2022/05/12 01:52:29;;;;;;;1.58;0.28;;;19.00;55.70;;;;;;5073354;28;20036;-71
2022/05/12 01:54:54;;;;;;;0.77;0.20;;;19.00;55.60;;;;;;5073121;28;20510;-71
2022/05/12 01:57:22;;;;;;;0.95;0.10;;;18.90;55.50;;;;;;5072986;28;20108;-72
2022/05/12 01:59:49;;;;;;;1.50;0.10;;;19.00;55.50;;;;;;5073234;28;20033;-73
2022/05/12 02:02:15;;;;;;;0.93;0.10;;;18.90;55.50;;;;;;5073003;28;20032;-69
2022/05/12 02:04:41;;;;;;;0.98;0.20;;;18.90;55.50;;;;;;5072958;28;20185;-72
2022/05/12 02:07:11;;;;;;;1.08;0.30;;;18.90;55.50;;;;;;5072922;28;20036;-72
2022/05/12 02:09:37;;;;;;;0.77;0.10;;;18.90;55.50;;;;;;5073176;28;20035;-73
2022/05/12 02:12:02;;;;;;;1.05;0.10;;;18.80;55.40;;;;;;5072657;28;20619;-72
2022/05/12 02:14:28;;;;;;;1.67;0.17;;;18.90;55.50;;;;;;5072820;28;20045;-74
2022/05/12 02:16:54;;;;;;;0.95;0.10;;;18.90;55.40;;;;;;5072901;28;20128;-72
2022/05/12 02:19:19;;;;;;;2.50;0.38;;;18.80;55.40;;;;;;5072722;28;20036;-73
2022/05/12 02:21:45;;;;;;;0.63;0.00;;;18.80;55.40;;;;;;5072905;28;20033;-74
2022/05/12 02:24:11;;;;;;;0.88;0.17;;;18.80;55.40;;;;;;5073753;28;20060;-72
2022/05/12 02:26:37;;;;;;;0.60;0.10;;;18.80;55.40;;;;;;5072369;28;20450;-72
2022/05/12 02:29:04;;;;;;;0.40;0.10;;;18.80;55.30;;;;;;5072377;28;20528;-68
2022/05/12 02:31:29;;;;;;;0.50;0.45;;;18.80;55.40;;;;;;5072458;28;20115;-71
2022/05/12 02:33:55;;;;;;;1.23;0.20;;;18.80;55.40;;;;;;5072556;28;20112;-73
2022/05/12 02:36:21;;;;;;;1.30;0.10;;;18.80;55.30;;;;;;5072689;28;20115;-71
2022/05/12 02:38:47;;;;;;;0.57;0.08;;;18.80;55.30;;;;;;5072248;28;20040;-72
2022/05/12 02:41:13;;;;;;;0.52;0.10;;;18.70;55.30;;;;;;5072503;28;20066;-72
2022/05/12 02:43:38;;;;;;;0.65;0.10;;;18.70;55.30;;;;;;5073239;28;20035;-75
2022/05/12 02:46:08;;;;;;;1.85;0.17;;;18.70;55.30;;;;;;5072124;28;20067;-72
2022/05/12 02:48:36;;;;;;;0.60;0.10;;;18.70;55.30;;;;;;5071127;28;20047;-72
2022/05/12 02:51:03;;;;;;;1.77;0.45;;;18.70;55.30;;;;;;5072256;28;20043;-72
2022/05/12 02:53:30;;;;;;;1.58;0.10;;;18.70;55.20;;;;;;5072066;28;20039;-72
2022/05/12 02:55:57;;;;;;;0.50;0.10;;;18.70;55.30;;;;;;5071944;28;20032;-72
2022/05/12 02:58:23;;;;;;;0.63;0.10;;;18.70;55.20;;;;;;5071759;28;20032;-72
2022/05/12 03:00:49;;;;;;;1.30;0.30;;;18.60;55.20;;;;;;5071869;28;20042;-73
2022/05/12 03:03:15;;;;;;;1.75;0.10;;;18.60;55.20;;;;;;5071702;28;20032;-72
2022/05/12 03:05:41;;;;;;;1.40;0.10;;;18.60;55.20;;;;;;5071735;28;20051;-71
2022/05/12 03:08:08;;;;;;;0.60;0.10;;;18.60;55.20;;;;;;5071696;28;20460;-69
2022/05/12 03:10:34;;;;;;;0.80;0.10;;;18.60;55.20;;;;;;5071599;28;20093;-72
2022/05/12 03:13:00;;;;;;;1.70;0.20;;;18.60;55.20;;;;;;5072833;28;20037;-72
2022/05/12 03:15:27;;;;;;;1.13;0.10;;;18.60;55.20;;;;;;5072794;28;20051;-72
2022/05/12 03:17:52;;;;;;;1.45;0.50;;;18.60;55.20;;;;;;5071445;28;20040;-71
2022/05/12 03:20:22;;;;;;;0.95;0.20;;;18.60;55.20;;;;;;5071396;28;20081;-71
2022/05/12 03:22:48;;;;;;;2.05;0.20;;;18.60;55.30;;;;;;5071776;28;20377;-72
2022/05/12 03:25:16;;;;;;;1.50;0.10;;;18.60;55.20;;;;;;5070923;28;20044;-73
2022/05/12 03:27:42;;;;;;;0.65;0.10;;;18.50;55.20;;;;;;5072494;28;20399;-72
2022/05/12 03:30:12;;;;;;;0.35;0.10;;;18.60;55.20;;;;;;5071205;28;20035;-73
2022/05/12 03:32:38;;;;;;;0.82;0.10;;;18.50;55.20;;;;;;5071209;28;20040;-73
2022/05/12 03:35:05;;;;;;;0.73;0.17;;;18.50;55.20;;;;;;5071141;28;20043;-73
2022/05/12 03:37:31;;;;;;;0.68;0.10;;;18.50;55.20;;;;;;5071352;28;20033;-71
2022/05/12 03:39:57;;;;;;;0.82;0.20;;;18.50;55.20;;;;;;5071343;28;20353;-71
2022/05/12 03:42:22;;;;;;;2.05;0.20;;;18.50;55.20;;;;;;5071268;28;20036;-70
2022/05/12 03:44:50;;;;;;;0.85;0.10;;;18.50;55.20;;;;;;5070913;28;20408;-71
2022/05/12 03:47:24;;;;;;;2.22;0.10;;;18.40;55.10;;;;;;5071024;28;20062;-73
2022/05/12 03:49:52;;;;;;;1.67;0.30;;;18.40;55.10;;;;;;5070902;28;20040;-73
2022/05/12 03:52:19;;;;;;;0.68;0.13;;;18.40;55.10;;;;;;5072309;28;20036;-72
2022/05/12 03:54:48;;;;;;;0.95;0.10;;;18.40;55.20;;;;;;5071196;28;20123;-71
2022/05/12 03:57:18;;;;;;;0.73;0.30;;;18.40;55.10;;;;;;5070796;28;20470;-71
2022/05/12 03:59:44;;;;;;;1.80;0.13;;;18.40;55.10;;;;;;5071913;28;20495;-68
2022/05/12 04:02:13;;;;;;;1.45;0.10;;;18.40;55.10;;;;;;5070899;28;20097;-71
2022/05/12 04:04:41;;;;;;;1.30;0.20;;;18.40;55.10;;;;;;5072001;28;20032;-71
2022/05/12 04:07:08;;;;;;;0.40;0.20;;;18.40;55.20;;;;;;5070663;28;20089;-71
2022/05/12 04:09:34;;;;;;;1.65;0.20;;;18.40;55.20;;;;;;5070648;28;20068;-71
2022/05/12 04:11:59;;;;;;;0.98;0.15;;;18.40;55.20;;;;;;5070900;28;20063;-71
2022/05/12 04:14:28;;;;;;;0.50;0.10;;;18.30;55.10;;;;;;5070994;28;20349;-68
2022/05/12 04:16:54;;;;;;;1.75;0.15;;;18.30;55.10;;;;;;5071843;28;20040;-71
2022/05/12 04:19:19;;;;;;;0.50;0.10;;;18.30;55.10;;;;;;5071378;28;20435;-69
2022/05/12 04:21:45;;;;;;;1.05;0.20;;;18.30;55.10;;;;;;5072006;28;20041;-70
2022/05/12 04:24:10;;;;;;;1.15;0.20;;;18.30;55.10;;;;;;5071267;28;20446;-71
2022/05/12 04:26:39;;;;;;;0.80;0.10;;;18.30;55.10;;;;;;5070304;28;20047;-71
2022/05/12 04:29:05;;;;;;;2.63;0.88;;;18.30;55.10;;;;;;5070780;28;20390;-71
2022/05/12 04:31:31;;;;;;;0.95;0.17;;;18.30;55.10;;;;;;5070732;28;20538;-70
2022/05/12 04:36:42;;;;;;;0.60;0.15;;;18.30;55.00;;;;;;5070227;28;20041;-71
2022/05/12 04:39:08;;;;;;;1.05;0.30;;;18.30;55.10;;;;;;5071706;28;20078;-71
2022/05/12 04:41:35;;;;;;;1.45;0.40;;;18.30;55.10;;;;;;5070666;28;20123;-71
2022/05/12 04:44:01;;;;;;;0.40;0.10;;;18.30;55.00;;;;;;5070315;28;20083;-71
2022/05/12 04:46:28;;;;;;;1.65;0.20;;;18.30;55.00;;;;;;5070607;28;20440;-71
2022/05/12 04:48:54;;;;;;;1.30;0.10;;;18.30;55.00;;;;;;5071599;28;20078;-68
2022/05/12 04:51:21;;;;;;;0.90;0.17;;;18.30;55.00;;;;;;5070568;28;20032;-69
2022/05/12 04:53:47;;;;;;;0.82;0.20;;;18.30;55.00;;;;;;5070247;28;20048;-68
2022/05/12 04:56:13;;;;;;;1.90;0.38;;;18.30;55.00;;;;;;5070273;28;20032;-70
2022/05/12 04:58:40;;;;;;;1.42;0.40;;;18.30;55.00;;;;;;5070450;28;20048;-68
2022/05/12 05:01:06;;;;;;;1.00;0.20;;;18.30;55.00;;;;;;5070268;28;20189;-71
2022/05/12 05:03:32;;;;;;;1.50;0.30;;;18.30;55.00;;;;;;5070352;28;20163;-71
2022/05/12 05:05:58;;;;;;;1.88;0.22;;;18.30;54.90;;;;;;5070501;28;20467;-73
2022/05/12 05:08:25;;;;;;;1.95;0.40;;;18.30;54.90;;;;;;5070066;28;20050;-71
2022/05/12 05:10:53;;;;;;;1.05;0.30;;;18.30;54.80;;;;;;5071155;28;20075;-70
2022/05/12 05:13:20;;;;;;;1.50;0.38;;;18.30;54.90;;;;;;5073133;28;20064;-71
2022/05/12 05:15:47;;;;;;;2.22;0.20;;;18.30;54.90;;;;;;5075080;28;20043;-71
2022/05/12 05:18:18;;;;;;;1.42;0.43;;;18.30;54.80;;;;;;5075053;28;20383;-73
2022/05/12 05:20:46;;;;;;;1.67;0.20;;;18.30;55.60;;;;;;5073757;28;20645;-71
2022/05/12 05:23:15;;;;;;;1.50;0.17;;;18.30;54.80;;;;;;5073589;28;20540;-73
2022/05/12 05:25:41;;;;;;;0.80;0.20;;;18.30;54.80;;;;;;5072954;28;20101;-72
2022/05/12 05:28:09;;;;;;;1.58;0.20;;;18.30;54.80;;;;;;5071551;28;20056;-72
2022/05/12 05:30:35;;;;;;;1.98;0.25;;;18.30;54.80;;;;;;5072598;28;20555;-72
2022/05/12 05:33:03;;;;;;;0.70;0.10;;;18.30;54.80;;;;;;5071418;28;20116;-76
2022/05/12 05:35:29;;;;;;;1.10;0.20;;;18.30;54.80;;;;;;5073088;28;20042;-74
2022/05/12 05:37:55;;;;;;;0.77;0.10;;;18.30;54.90;;;;;;5073260;28;20368;-75
2022/05/12 05:40:26;;;;;;;4.57;0.30;;;18.30;54.90;;;;;;5072487;28;20123;-73
2022/05/12 05:42:52;;;;;;;;;;;18.40;55.60;;;;;;5071211;28;20033;-74
2022/05/12 05:45:18;;;;;;;3.70;0.20;;;18.40;55.00;;;;;;5072580;28;20296;-74
2022/05/12 05:47:47;;;;;;;1.83;0.30;;;18.40;54.70;;;;;;5072842;28;20044;-74
2022/05/12 05:50:17;;;;;;;1.70;0.28;;;18.50;54.70;;;;;;5069734;28;20475;-75
2022/05/12 05:55:28;;;;;;;3.17;0.45;;;18.60;54.60;;;;;;5069469;28;20037;-70
2022/05/12 05:58:00;;;;;;;3.47;0.40;;;18.60;55.10;;;;;;5069014;28;20036;-73
2022/05/12 06:00:31;;;;;;;4.05;0.52;;;18.60;57.10;;;;;;5081058;28;20036;-77
2022/05/12 06:02:57;;;;;;;3.75;0.55;;;18.60;57.40;;;;;;5067554;28;20039;-74
2022/05/12 06:05:24;;;;;;;2.03;0.28;;;18.60;57.90;;;;;;5064772;28;20049;-74
2022/05/12 06:07:50;;;;;;;2.72;0.30;;;18.70;56.90;;;;;;5059341;28;20037;-74
2022/05/12 06:10:16;;;;;;;2.42;0.60;;;18.70;56.20;;;;;;5048204;28;20799;-74
2022/05/12 06:12:42;;;;;;;1.30;0.30;;;18.70;55.90;;;;;;5061200;28;20164;-73
2022/05/12 06:15:09;;;;;;;1.73;0.38;;;18.80;56.30;;;;;;5057338;28;20075;-75
2022/05/12 06:17:36;;;;;;;2.72;0.40;;;18.80;56.90;;;;;;5057561;28;20040;-76
2022/05/12 06:20:06;;;;;;;2.72;0.30;;;18.80;56.80;;;;;;5062084;28;20045;-74
2022/05/12 06:22:32;;;;;;;3.25;0.40;;;18.80;57.10;;;;;;5064393;28;20040;-74
2022/05/12 06:24:58;;;;;;;4.00;0.32;;;18.80;56.70;;;;;;5062132;28;20576;-74
2022/05/12 06:27:24;;;;;;;2.75;0.30;;;18.80;56.40;;;;;;5058533;28;20048;-74
2022/05/12 06:29:51;;;;;;;5.38;0.30;;;18.90;56.40;;;;;;5064612;28;20082;-71
2022/05/12 06:32:17;;;;;;;1.63;0.43;;;18.90;57.20;;;;;;5050246;28;20521;-71
2022/05/12 06:34:43;;;;;;;2.80;0.20;;;18.90;56.50;;;;;;5051369;28;20053;-72
2022/05/12 06:37:11;;;;;;;6.00;1.00;;;18.90;56.50;;;;;;5070114;28;20416;-70
2022/05/12 06:39:37;;;;;;;2.13;0.38;;;18.90;56.70;;;;;;5055911;28;20044;-69
2022/05/12 06:42:04;;;;;;;3.97;0.50;;;18.90;56.70;;;;;;5053927;28;20068;-67
2022/05/12 06:44:34;;;;;;;3.30;0.68;;;18.90;56.70;;;;;;5053134;28;20037;-68
2022/05/12 06:46:59;;;;;;;2.90;0.30;;;18.90;56.70;;;;;;5050320;28;20048;-68
2022/05/12 06:49:25;;;;;;;4.90;0.40;;;18.90;56.90;;;;;;5055536;28;20036;-73
2022/05/12 06:51:52;;;;;;;3.38;0.50;;;18.90;57.30;;;;;;5054122;28;20051;-73
2022/05/12 06:54:18;;;;;;;7.68;0.82;;;19.00;57.80;;;;;;5054938;28;20048;-75
2022/05/12 06:56:44;;;;;;;4.07;0.50;;;19.00;57.70;;;;;;5053397;28;20044;-71
2022/05/12 06:59:09;;;;;;;3.55;0.60;;;19.00;57.70;;;;;;5051061;28;20086;-70
2022/05/12 07:01:35;;;;;;;3.22;0.75;;;19.00;57.50;;;;;;5047502;28;20044;-70
2022/05/12 07:04:01;;;;;;;3.70;0.30;;;19.10;57.30;;;;;;5070975;28;20128;-71
2022/05/12 07:06:28;;;;;;;5.93;0.60;;;19.20;57.30;;;;;;5058164;28;20132;-69
2022/05/12 07:08:54;;;;;;;3.22;0.40;;;19.20;57.10;;;;;;5051853;28;20040;-69
2022/05/12 07:11:19;;;;;;;2.88;0.45;;;19.30;57.80;;;;;;5052915;28;20124;-70
2022/05/12 07:13:46;;;;;;;4.43;0.50;;;19.30;57.30;;;;;;5070489;28;20160;-69
2022/05/12 07:16:12;;;;;;;3.58;0.30;;;19.30;57.40;;;;;;5052115;28;20079;-69
2022/05/12 07:18:38;;;;;;;3.17;0.70;;;19.30;57.50;;;;;;5053596;28;20053;-71
2022/05/12 07:26:40;;;;;;;4.15;0.60;;;19.30;57.50;;;;;;5056098;28;20063;-72
2022/05/12 07:29:10;;;;;;;3.88;0.40;;;19.30;57.50;;;;;;5070161;28;20488;-71
2022/05/12 07:31:36;;;;;;;3.13;0.28;;;19.40;57.60;;;;;;5051058;28;20112;-69
2022/05/12 07:34:02;;;;;;;3.50;0.40;;;19.40;57.60;;;;;;5053092;28;20045;-73
2022/05/12 07:36:32;;;;;;;3.38;0.25;;;19.40;57.60;;;;;;5056470;28;20085;-72
2022/05/12 07:38:58;;;;;;;4.35;0.43;;;19.40;57.60;;;;;;5051371;28;20044;-71
2022/05/12 07:41:25;;;;;;;4.07;0.30;;;19.40;57.60;;;;;;5050889;28;20082;-71
2022/05/12 07:43:51;;;;;;;2.38;0.50;;;19.40;57.60;;;;;;5052144;28;20068;-72
2022/05/12 07:46:23;;;;;;;3.80;0.40;;;19.50;57.60;;;;;;5049235;28;20535;-74
2022/05/12 07:48:50;;;;;;;4.43;0.28;;;19.50;57.60;;;;;;5048910;28;20495;-72
2022/05/12 07:51:19;;;;;;;2.40;0.40;;;19.50;57.50;;;;;;5052452;28;20047;-71
2022/05/12 07:53:47;;;;;;;4.97;0.32;;;19.50;57.50;;;;;;5051314;28;20076;-71
2022/05/12 07:56:16;;;;;;;3.53;0.32;;;19.50;57.50;;;;;;5049696;28;20303;-73
2022/05/12 07:58:42;;;;;;;2.60;0.30;;;19.50;57.40;;;;;;5056523;28;20487;-70
2022/05/12 08:01:08;;;;;;;3.42;0.30;;;19.50;57.10;;;;;;5065643;28;20033;-70
2022/05/12 08:03:34;;;;;;;5.68;0.70;;;19.60;56.80;;;;;;5050129;28;20051;-73
2022/05/12 08:06:00;;;;;;;2.67;0.40;;;19.70;56.70;;;;;;5049162;28;20037;-71
2022/05/12 08:08:25;;;;;;;3.47;0.35;;;19.70;56.80;;;;;;5047164;28;20399;-74
2022/05/12 08:10:51;;;;;;;2.65;0.40;;;19.80;56.80;;;;;;5039328;28;20125;-73
2022/05/12 08:13:17;;;;;;;2.33;0.20;;;19.90;56.80;;;;;;5050628;28;20045;-75
2022/05/12 08:15:44;;;;;;;1.63;0.20;;;19.90;56.80;;;;;;5069324;28;20044;-72
2022/05/12 08:18:11;;;;;;;4.57;0.20;;;19.90;56.70;;;;;;5049729;28;20091;-75
2022/05/12 08:20:38;;;;;;;7.63;0.40;;;19.90;56.60;;;;;;5066029;28;20048;-74
2022/05/12 08:23:05;;;;;;;1.35;0.15;;;20.00;56.50;;;;;;5055357;28;20044;-74
2022/05/12 08:25:31;;;;;;;5.75;0.50;;;20.10;56.50;;;;;;5052772;28;20132;-73
2022/05/12 08:27:57;;;;;;;2.55;0.20;;;20.10;55.60;;;;;;5050760;28;20124;-76
2022/05/12 08:30:26;;;;;;;3.35;0.25;;;20.20;55.30;;;;;;5048650;28;20061;-79
2022/05/12 08:32:52;;;;;;;3.50;0.20;;;20.20;55.30;;;;;;5047812;28;20055;-76
2022/05/12 08:35:17;;;;;;;3.67;0.40;;;20.20;55.20;;;;;;5051136;28;20045;-78
2022/05/12 08:37:46;;;;;;;4.85;0.28;;;20.20;55.20;;;;;;5050061;28;20594;-77
2022/05/12 08:40:28;;;;;;;4.70;0.50;;;20.20;55.10;;;;;;5050173;28;20048;-77
2022/05/12 08:43:11;;;;;;;2.33;0.20;;;20.20;55.10;;;;;;5058775;28;20059;-73
2022/05/12 08:45:37;;;;;;;2.97;0.20;;;20.20;55.10;;;;;;5056967;28;20036;-78
2022/05/12 08:48:03;;;;;;;4.13;0.95;;;20.20;55.10;;;;;;5054521;28;20043;-79
2022/05/12 08:50:31;;;;;;;4.50;0.43;;;20.30;55.00;;;;;;5066412;28;20086;-69
2022/05/12 08:53:02;;;;;;;4.85;0.30;;;20.40;54.70;;;;;;5056526;28;20037;-73
2022/05/12 08:55:49;;;;;;;4.68;0.40;;;20.70;54.20;;;;;;5058435;28;20182;-72
2022/05/12 08:58:35;;;;;;;1.63;0.28;;;21.10;53.70;;;;;;5069245;28;20110;-71
2022/05/12 09:07:09;;;;;;;1.75;0.10;;;22.00;51.30;;;;;;5096690;27;20116;-70
2022/05/12 09:15:27;;;;;;;3.65;0.20;;;22.10;50.90;;;;;;5106745;27;20451;-70
2022/05/12 09:20:41;;;;;;;2.55;0.20;;;22.30;50.50;;;;;;5112956;27;20342;-70
2022/05/12 09:23:07;;;;;;;2.13;0.20;;;22.60;49.80;;;;;;5103672;28;20437;-70
2022/05/12 09:33:52;;;;;;;1.17;0.20;;;22.70;49.50;;;;;;5055216;27;20374;-71
2022/05/12 09:39:04;;;;;;;1.67;0.20;;;23.00;48.80;;;;;;5064657;27;20917;-67
2022/05/12 09:41:40;;;;;;;2.25;0.20;;;23.00;48.50;;;;;;5057848;28;20095;-71
2022/05/12 09:47:01;;;;;;;1.65;0.22;;;23.10;48.60;;;;;;5057039;27;20708;-69
2022/05/12 09:49:33;;;;;;;5.60;0.47;;;23.10;48.20;;;;;;5051390;28;20047;-69
2022/05/12 10:00:43;;;;;;;3.65;0.30;;;23.10;47.80;;;;;;5116557;27;1157422;-70
2022/05/12 10:09:18;;;;;;;5.13;0.40;;;22.80;47.90;;;;;;5089476;27;20405;-73
2022/05/12 10:12:15;;;;;;;3.20;0.20;;;22.70;47.90;;;;;;5069221;28;20539;-70
2022/05/12 10:20:23;;;;;;;2.83;0.28;;;22.70;47.90;;;;;;5074255;27;20465;-72
2022/05/12 10:40:43;;;;;;;2.78;0.30;;;22.60;45.50;;;;;;5129766;27;1180704;-70
2022/05/12 10:43:48;;;;;;;3.50;0.20;;;22.50;45.10;;;;;;5135125;27;20055;-72
2022/05/12 10:49:18;;;;;;;7.90;0.30;;;22.50;44.90;;;;;;5093717;27;20479;-71
2022/05/12 10:57:23;;;;;;;8.63;0.30;;;22.50;44.60;;;;;;5095844;27;20923;-68
2022/05/12 11:00:16;;;;;;;3.85;0.30;;;22.50;45.50;;;;;;5089335;28;20058;-68
2022/05/12 11:02:47;;;;;;;3.72;0.20;;;22.50;45.50;;;;;;5093074;28;20044;-66
2022/05/12 11:08:16;;;;;;;2.15;0.30;;;22.60;45.50;;;;;;5086268;27;21165;-68
2022/05/12 11:10:56;;;;;;;2.15;0.20;;;22.60;45.60;;;;;;5066981;28;20051;-67
2022/05/12 11:13:38;;;;;;;6.53;0.40;;;22.70;45.80;;;;;;5054401;28;20177;-68
2022/05/12 11:21:27;;;;;;;3.83;0.20;;;22.60;46.00;;;;;;5103015;27;20405;-71
2022/05/12 11:30:25;;;;;;;6.57;0.25;;;22.60;47.00;;;;;;5122774;27;20882;-74
2022/05/12 11:33:31;;;;;;;4.22;0.38;;;22.70;47.20;;;;;;5119276;27;20051;-72
2022/05/12 11:35:57;;;;;;;4.03;0.20;;;22.70;47.30;;;;;;5116378;27;20118;-73
2022/05/12 11:44:26;;;;;;;3.08;0.30;;;22.70;47.20;;;;;;5085882;27;20419;-70
2022/05/12 11:47:19;;;;;;;5.25;0.40;;;22.70;47.30;;;;;;5052887;28;20051;-71
2022/05/12 11:55:30;;;;;;;2.83;0.20;;;22.80;46.90;;;;;;5122943;27;20478;-71
2022/05/12 12:06:05;;;;;;;2.05;0.20;;;22.80;46.40;;;;;;5083501;27;21022;-73
2022/05/12 12:13:58;;;;;;;3.25;0.20;;;22.80;45.90;;;;;;5092067;27;20394;-71
2022/05/12 12:16:28;;;;;;;4.72;0.40;;;22.90;46.20;;;;;;5080553;28;20087;-69
2022/05/12 12:24:28;;;;;;;2.33;0.17;;;22.90;46.10;;;;;;5062947;28;21179;-70
2022/05/12 12:27:15;;;;;;;4.00;0.20;;;22.90;45.70;;;;;;5049997;28;20045;-68
2022/05/12 12:29:46;;;;;;;1.58;0.20;;;22.90;45.70;;;;;;5065872;28;20039;-71
2022/05/12 12:32:30;;;;;;;3.15;0.20;;;22.90;45.70;;;;;;5033935;28;20071;-72
2022/05/12 12:35:23;;;;;;;5.18;0.10;;;23.00;45.70;;;;;;5064565;28;20053;-70
2022/05/12 12:37:51;;;;;;;7.35;0.50;;;23.00;45.70;;;;;;5050873;28;20163;-68
2022/05/12 12:40:43;;;;;;;6.70;0.20;;;22.90;45.70;;;;;;5050070;28;20053;-71
2022/05/12 12:43:24;;;;;;;4.97;0.30;;;23.00;45.70;;;;;;5055976;28;20053;-70
2022/05/12 12:45:52;;;;;;;5.90;0.35;;;23.00;45.60;;;;;;5042134;28;20528;-71
2022/05/12 12:48:28;;;;;;;12.95;0.30;;;23.00;45.40;;;;;;5046797;28;20049;-72
2022/05/12 12:50:54;;;;;;;4.95;0.40;;;23.00;45.40;;;;;;5045234;28;20049;-71
2022/05/12 12:58:46;;;;;;;5.53;0.60;;;23.00;44.90;;;;;;5044516;28;20055;-68
2022/05/12 13:01:17;;;;;;;5.75;0.20;;;23.10;44.70;;;;;;5051486;28;20037;-71
2022/05/12 13:03:48;;;;;;;4.97;0.35;;;23.10;44.20;;;;;;5055318;28;20674;-69
2022/05/12 13:06:17;;;;;;;8.73;0.60;;;23.00;44.20;;;;;;5058959;28;20049;-70
2022/05/12 13:08:55;;;;;;;7.47;0.40;;;23.00;44.10;;;;;;5064944;28;20043;-73
2022/05/12 13:11:21;;;;;;;5.18;0.10;;;23.00;43.60;;;;;;5058586;28;20091;-76
2022/05/12 13:13:49;;;;;;;5.45;0.20;;;23.00;43.20;;;;;;5059781;28;20040;-75
2022/05/12 13:16:18;;;;;;;4.25;0.20;;;23.00;42.70;;;;;;5059516;28;20044;-77
2022/05/12 13:18:47;;;;;;;4.25;0.25;;;23.00;42.50;;;;;;5056471;28;20044;-75
2022/05/12 13:21:19;;;;;;;3.28;0.40;;;23.00;42.60;;;;;;5071639;28;20040;-76
2022/05/12 13:23:58;;;;;;;5.25;0.20;;;22.90;42.30;;;;;;5058845;28;20069;-76
2022/05/12 13:26:24;;;;;;;3.95;0.32;;;22.90;42.00;;;;;;5059837;28;20500;-76
2022/05/12 13:28:50;;;;;;;3.25;0.20;;;22.90;42.00;;;;;;5060559;28;20128;-71
2022/05/12 13:39:58;;;;;;;3.05;0.20;;;22.90;41.30;;;;;;5059499;28;20462;-70
2022/05/12 13:42:46;;;;;;;1.83;0.50;;;22.80;41.10;;;;;;5052592;28;20052;-69
2022/05/12 13:45:31;;;;;;;2.10;0.20;;;22.90;41.00;;;;;;5057851;28;20122;-75
2022/05/12 13:47:59;;;;;;;1.02;0.20;;;22.90;40.70;;;;;;5065394;28;20044;-71
2022/05/12 13:50:47;;;;;;;0.95;0.10;;;23.00;40.70;;;;;;5054900;28;20032;-71
2022/05/12 13:53:25;;;;;;;1.75;0.10;;;23.00;40.40;;;;;;5054927;28;20174;-72
2022/05/12 13:56:13;;;;;;;2.38;0.25;;;22.90;40.20;;;;;;5056293;28;20049;-72
2022/05/12 13:58:58;;;;;;;1.73;0.20;;;22.90;40.00;;;;;;5059377;28;20075;-71
2022/05/12 14:01:33;;;;;;;2.05;0.30;;;22.90;40.20;;;;;;5069909;28;20143;-72
2022/05/12 14:06:59;;;;;;;1.33;0.10;;;22.90;40.10;;;;;;5074470;27;20385;-72
2022/05/12 14:09:29;;;;;;;0.52;0.32;;;22.90;40.00;;;;;;5078555;28;20094;-72
2022/05/12 14:11:58;;;;;;;;;;;22.90;40.10;;;;;;5080207;28;20050;-71
2022/05/12 14:20:07;;;;;;;2.38;0.20;;;22.90;40.10;;;;;;5081791;28;20142;-72
2022/05/12 14:22:33;;;;;;;2.65;0.10;;;22.90;39.90;;;;;;5084403;28;20056;-72
2022/05/12 14:24:59;;;;;;;1.02;0.15;;;22.90;40.20;;;;;;5082275;28;20044;-70
2022/05/12 14:27:26;;;;;;;1.17;0.10;;;22.90;40.20;;;;;;5078739;28;20036;-70
2022/05/12 14:29:51;;;;;;;1.05;0.20;;;22.90;40.00;;;;;;5082029;28;20097;-70
2022/05/12 14:32:20;;;;;;;1.42;0.20;;;22.90;39.90;;;;;;5083261;28;20072;-71
2022/05/12 14:34:47;;;;;;;1.77;0.13;;;22.90;39.70;;;;;;5084584;28;20043;-70
2022/05/12 14:37:13;;;;;;;2.28;0.10;;;23.00;39.70;;;;;;5083478;28;20429;-68
2022/05/12 14:39:39;;;;;;;1.52;0.22;;;23.00;39.70;;;;;;5084258;28;20044;-66
2022/05/12 14:42:05;;;;;;;3.22;0.17;;;23.00;39.60;;;;;;5084519;28;20507;-69
2022/05/12 14:44:32;;;;;;;1.27;0.10;;;23.00;39.60;;;;;;5085363;28;20044;-71
2022/05/12 14:47:02;;;;;;;4.25;0.40;;;23.00;39.60;;;;;;5081594;28;20137;-71
2022/05/12 14:49:29;;;;;;;;;;;23.00;39.60;;;;;;5081266;28;20090;-73
2022/05/12 14:51:55;;;;;;;5.05;0.40;;;23.00;39.60;;;;;;5084519;28;19920;-73
2022/05/12 14:54:21;;;;;;;3.95;0.30;;;23.00;40.00;;;;;;5083999;28;20379;-74
2022/05/12 14:56:47;;;;;;;1.13;0.30;;;23.00;40.10;;;;;;5085065;28;20045;-73
2022/05/12 14:59:13;;;;;;;0.82;0.20;;;22.90;39.90;;;;;;5084766;28;20032;-74
2022/05/12 15:01:42;;;;;;;2.55;0.25;;;22.90;39.90;;;;;;5084733;28;20046;-73
2022/05/12 15:04:08;;;;;;;2.13;0.20;;;22.80;40.00;;;;;;5083545;28;20037;-72
2022/05/12 15:06:35;;;;;;;1.50;0.20;;;22.80;40.10;;;;;;5084731;28;20048;-74
2022/05/12 15:09:01;;;;;;;2.42;0.10;;;22.70;40.20;;;;;;5084846;28;20051;-74
2022/05/12 15:11:27;;;;;;;2.28;0.30;;;22.80;40.20;;;;;;5086673;28;20119;-74
2022/05/12 15:13:55;;;;;;;3.33;0.38;;;22.70;40.20;;;;;;5084103;28;20142;-73
2022/05/12 15:16:22;;;;;;;3.33;0.30;;;22.70;40.40;;;;;;5080835;28;20058;-70
2022/05/12 15:18:48;;;;;;;2.15;0.40;;;22.60;40.40;;;;;;5070899;28;20051;-72
2022/05/12 15:21:14;;;;;;;2.05;0.30;;;22.50;40.60;;;;;;5071049;28;20352;-73
2022/05/12 15:23:42;;;;;;;3.95;0.30;;;22.50;40.60;;;;;;5071379;28;20048;-72
2022/05/12 15:26:11;;;;;;;1.00;0.20;;;22.60;40.70;;;;;;5070189;28;20052;-73
2022/05/12 15:28:38;;;;;;;0.77;0.20;;;22.50;40.80;;;;;;5072074;28;20036;-74
2022/05/12 15:31:04;;;;;;;1.42;0.10;;;22.50;41.50;;;;;;5071451;28;20303;-72
2022/05/12 15:33:30;;;;;;;3.60;0.13;;;22.50;40.80;;;;;;5072240;28;20051;-73